createdAt,value
2022-08-30T00:01:00.075Z,101597.25
2022-08-30T00:03:27.715Z,101634.16
2022-08-30T00:05:56.302Z,101596.53
2022-08-30T00:08:22.978Z,101553.38
2022-08-30T00:10:51.130Z,101626.72
2022-08-30T00:13:18.957Z,101642.09
2022-08-30T00:15:45.967Z,101650.41
2022-08-30T00:18:12.719Z,101514.78
2022-08-30T00:20:39.167Z,101614.03
2022-08-30T00:23:05.926Z,101641.69
2022-08-30T00:25:32.465Z,101595.00
2022-08-30T00:27:58.965Z,101533.56
2022-08-30T00:30:25.745Z,101556.63
2022-08-30T00:32:52.352Z,101650.41
2022-08-30T00:35:20.449Z,101647.19
2022-08-30T00:37:48.188Z,101629.44
2022-08-30T00:40:17.749Z,101655.16
2022-08-30T00:42:44.545Z,101656.22
2022-08-30T00:45:22.760Z,101650.38
2022-08-30T00:47:49.157Z,101613.47
2022-08-30T00:50:20.193Z,101652.97
2022-08-30T00:52:48.893Z,101652.84
2022-08-30T00:55:18.006Z,101654.09
2022-08-30T00:57:46.664Z,101659.91
2022-08-30T01:00:16.089Z,101650.63
2022-08-30T01:02:43.207Z,101627.81
2022-08-30T01:05:16.103Z,101643.91
2022-08-30T01:07:43.336Z,101631.97
2022-08-30T01:10:11.752Z,101662.47
2022-08-30T01:12:39.684Z,101672.41
2022-08-30T01:15:08.021Z,101631.50
2022-08-30T01:17:34.619Z,101619.69
2022-08-30T01:20:20.557Z,101656.78
2022-08-30T01:22:49.954Z,101670.03
2022-08-30T01:25:24.826Z,101669.34
2022-08-30T01:27:58.954Z,101647.41
2022-08-30T01:30:25.357Z,101649.22
2022-08-30T01:32:59.004Z,101667.38
2022-08-30T01:35:25.992Z,101548.09
2022-08-30T01:37:52.463Z,101587.91
2022-08-30T01:40:19.794Z,101661.25
2022-08-30T01:42:46.278Z,101669.94
2022-08-30T01:45:13.956Z,101670.78
2022-08-30T01:47:40.533Z,101674.19
2022-08-30T01:50:08.675Z,101631.22
2022-08-30T01:52:35.247Z,101609.09
2022-08-30T01:55:02.101Z,101663.88
2022-08-30T01:57:28.629Z,101691.22
2022-08-30T01:59:55.438Z,101678.72
2022-08-30T02:02:25.859Z,101627.06
2022-08-30T02:04:54.006Z,101670.13
2022-08-30T02:07:21.985Z,101662.66
2022-08-30T02:09:48.465Z,101639.56
2022-08-30T02:12:15.267Z,101612.28
2022-08-30T02:14:41.673Z,101597.72
2022-08-30T02:17:10.761Z,101598.25
2022-08-30T02:19:37.282Z,101561.41
2022-08-30T02:22:04.302Z,101555.34
2022-08-30T02:24:30.796Z,101657.63
2022-08-30T02:26:57.454Z,101656.78
2022-08-30T02:29:24.833Z,101650.53
2022-08-30T02:31:51.377Z,101591.56
2022-08-30T02:34:18.797Z,101647.56
2022-08-30T02:36:45.952Z,101632.72
2022-08-30T02:39:13.352Z,101645.19
2022-08-30T02:41:41.836Z,101657.31
2022-08-30T02:44:09.900Z,101632.88
2022-08-30T02:46:36.873Z,101641.28
2022-08-30T02:49:29.851Z,101631.44
2022-08-30T02:51:50.928Z,101637.03
2022-08-30T02:54:20.004Z,101611.38
2022-08-30T02:56:47.865Z,101542.47
2022-08-30T02:59:16.316Z,101538.41
2022-08-30T03:01:43.083Z,101579.03
2022-08-30T03:04:09.968Z,101579.22
2022-08-30T03:06:37.016Z,101613.63
2022-08-30T03:09:04.157Z,101627.78
2022-08-30T03:11:30.601Z,101438.50
2022-08-30T03:13:56.965Z,101564.81
2022-08-30T03:16:23.469Z,101604.00
2022-08-30T03:18:49.937Z,101608.31
2022-08-30T03:21:17.058Z,101571.16
2022-08-30T03:23:44.115Z,101610.00
2022-08-30T03:26:13.486Z,101611.06
2022-08-30T03:28:40.973Z,101594.31
2022-08-30T03:31:08.787Z,101612.88
2022-08-30T03:33:36.377Z,101582.97
2022-08-30T03:36:02.905Z,101567.69
2022-08-30T03:38:29.342Z,101517.16
2022-08-30T03:40:55.699Z,101546.00
2022-08-30T03:43:23.441Z,101596.22
2022-08-30T03:45:50.426Z,101601.03
2022-08-30T03:48:16.769Z,101538.38
2022-08-30T03:50:43.225Z,101603.75
2022-08-30T03:53:09.995Z,101488.50
2022-08-30T03:55:36.469Z,101599.59
2022-08-30T03:58:03.006Z,101602.34
2022-08-30T04:00:30.502Z,101533.16
2022-08-30T04:02:56.916Z,101596.84
2022-08-30T04:05:23.345Z,101516.50
2022-08-30T04:07:49.883Z,101601.59
2022-08-30T04:10:16.546Z,101597.44
2022-08-30T04:12:47.420Z,101517.09
2022-08-30T04:15:17.862Z,101602.56
2022-08-30T04:17:44.278Z,101569.00
2022-08-30T04:20:11.351Z,101570.41
2022-08-30T04:22:38.035Z,101547.53
2022-08-30T04:25:05.584Z,101570.34
2022-08-30T04:27:32.366Z,101558.56
2022-08-30T04:30:00.137Z,101627.06
2022-08-30T04:32:26.605Z,101543.56
2022-08-30T04:34:57.721Z,101610.91
2022-08-30T04:37:24.203Z,101474.00
2022-08-30T04:39:55.058Z,101624.44
2022-08-30T04:42:21.503Z,101631.72
2022-08-30T04:44:47.958Z,101622.16
2022-08-30T04:47:14.425Z,101604.63
2022-08-30T04:49:40.772Z,101557.81
2022-08-30T04:52:08.817Z,101625.09
2022-08-30T04:54:37.083Z,101638.44
2022-08-30T04:57:04.955Z,101601.44
2022-08-30T04:59:31.397Z,101598.88
2022-08-30T05:01:58.006Z,101571.16
2022-08-30T05:04:24.481Z,101550.50
2022-08-30T05:06:51.060Z,101629.44
2022-08-30T05:09:17.614Z,101627.25
2022-08-30T05:11:44.901Z,101630.56
2022-08-30T05:14:11.568Z,101577.09
2022-08-30T05:16:38.120Z,101631.63
2022-08-30T05:19:05.284Z,101588.19
2022-08-30T05:21:31.773Z,101578.94
2022-08-30T05:24:00.536Z,101638.78
2022-08-30T05:26:32.527Z,101587.16
2022-08-30T05:28:59.260Z,101540.41
2022-08-30T05:31:28.979Z,101560.44
2022-08-30T05:33:56.297Z,101632.31
2022-08-30T05:36:25.810Z,101632.78
2022-08-30T05:38:53.604Z,101627.91
2022-08-30T05:41:21.853Z,101513.94
2022-08-30T05:43:48.690Z,101586.63
2022-08-30T05:46:19.277Z,101632.16
2022-08-30T05:48:46.893Z,101627.94
2022-08-30T05:51:19.592Z,101613.72
2022-08-30T05:53:46.606Z,101622.69
2022-08-30T05:56:15.946Z,101619.53
2022-08-30T05:58:43.432Z,101624.00
2022-08-30T06:01:26.399Z,101617.00
2022-08-30T06:03:53.483Z,101613.38
2022-08-30T06:06:20.044Z,101605.41
2022-08-30T06:08:48.451Z,101508.19
2022-08-30T06:11:17.656Z,101575.88
2022-08-30T06:13:44.113Z,101566.63
2022-08-30T06:16:12.819Z,101610.44
2022-08-30T06:18:40.136Z,101601.38
2022-08-30T06:21:06.750Z,101564.78
2022-08-30T06:23:33.241Z,101456.13
2022-08-30T06:26:07.273Z,101564.50
2022-08-30T06:28:34.512Z,101597.06
2022-08-30T06:31:00.901Z,101540.56
2022-08-30T06:33:27.411Z,101523.94
2022-08-30T06:35:59.227Z,101494.50
2022-08-30T06:38:26.826Z,101594.44
2022-08-30T06:40:53.182Z,101605.00
2022-08-30T06:43:20.788Z,101544.09
2022-08-30T06:45:47.262Z,101499.50
2022-08-30T06:48:13.777Z,101563.22
2022-08-30T06:50:41.970Z,101522.50
2022-08-30T06:53:09.300Z,101586.44
2022-08-30T06:55:37.277Z,101567.69
2022-08-30T06:58:04.733Z,101540.78
2022-08-30T07:00:31.248Z,101604.88
2022-08-30T07:02:58.082Z,101556.53
2022-08-30T07:05:24.570Z,101407.91
2022-08-30T07:07:53.295Z,101595.19
2022-08-30T07:10:21.485Z,101281.47
2022-08-30T07:12:48.698Z,101442.06
2022-08-30T07:15:15.840Z,101553.53
2022-08-30T07:18:00.632Z,101572.06
2022-08-30T07:20:27.124Z,101502.19
2022-08-30T07:22:53.529Z,101542.34
2022-08-30T07:25:19.985Z,101579.63
2022-08-30T07:27:46.682Z,101534.72
2022-08-30T07:30:14.166Z,101556.09
2022-08-30T07:32:40.796Z,101576.63
2022-08-30T07:35:07.458Z,101569.22
2022-08-30T07:37:33.842Z,101568.16
2022-08-30T07:40:00.418Z,101580.13
2022-08-30T07:42:26.875Z,101564.16
2022-08-30T07:44:56.588Z,101510.00
2022-08-30T07:47:23.518Z,101477.72
2022-08-30T07:49:50.001Z,101555.91
2022-08-30T07:52:16.828Z,101584.38
2022-08-30T07:54:43.217Z,101530.28
2022-08-30T07:57:09.697Z,101519.06
2022-08-30T07:59:36.380Z,101488.38
2022-08-30T08:02:03.456Z,101578.47
2022-08-30T08:04:29.924Z,101555.97
2022-08-30T08:06:56.385Z,101577.84
2022-08-30T08:09:22.764Z,101265.97
2022-08-30T08:11:49.309Z,101589.03
2022-08-30T08:16:47.026Z,101578.56
2022-08-30T08:19:13.709Z,101460.78
2022-08-30T08:21:40.210Z,101506.28
2022-08-30T08:24:07.656Z,101579.41
2022-08-30T08:26:38.569Z,101422.34
2022-08-30T08:29:09.857Z,101566.41
2022-08-30T08:31:36.943Z,101571.94
2022-08-30T08:34:05.791Z,101568.59
2022-08-30T08:36:33.244Z,101501.09
2022-08-30T08:39:00.338Z,101561.19
2022-08-30T08:41:35.954Z,101555.41
2022-08-30T08:44:18.708Z,101539.41
2022-08-30T08:47:08.188Z,101557.50
2022-08-30T08:49:36.069Z,101533.00
2022-08-30T08:52:23.038Z,101507.31
2022-08-30T08:54:59.025Z,101539.66
2022-08-30T08:57:29.455Z,101527.94
2022-08-30T08:59:56.065Z,101441.44
2022-08-30T09:02:27.356Z,101499.09
2022-08-30T09:05:01.090Z,101551.09
2022-08-30T09:07:32.191Z,101451.84
2022-08-30T09:10:00.552Z,101534.13
2022-08-30T09:12:27.969Z,101554.38
2022-08-30T09:15:02.605Z,101545.22
2022-08-30T09:17:29.704Z,101561.56
2022-08-30T09:19:56.022Z,101561.38
2022-08-30T09:22:38.622Z,101559.34
2022-08-30T09:25:08.822Z,101578.31
2022-08-30T09:27:46.805Z,101493.94
2022-08-30T09:30:21.082Z,101546.56
2022-08-30T09:32:56.630Z,101553.91
2022-08-30T09:35:25.318Z,101553.50
2022-08-30T09:37:56.438Z,101492.16
2022-08-30T09:40:28.306Z,101553.00
2022-08-30T09:43:07.907Z,101547.97
2022-08-30T09:45:39.066Z,101541.47
2022-08-30T09:48:44.025Z,101536.31
2022-08-30T09:54:26.454Z,101541.81
2022-08-30T09:57:12.862Z,101552.09
2022-08-30T10:00:02.117Z,101551.31
2022-08-30T10:02:56.595Z,101550.34
2022-08-30T10:05:32.501Z,101553.22
2022-08-30T10:08:05.136Z,101552.78
2022-08-30T10:10:59.205Z,101552.94
2022-08-30T10:13:53.833Z,101554.63
2022-08-30T10:16:31.501Z,101556.94
2022-08-30T10:19:00.949Z,101561.91
2022-08-30T10:22:24.364Z,101557.00
2022-08-30T10:24:58.212Z,101551.25
2022-08-30T10:27:52.985Z,101501.78
2022-08-30T10:30:20.225Z,101538.13
2022-08-30T10:33:02.088Z,101550.81
2022-08-30T10:35:38.943Z,101548.00
2022-08-30T10:38:11.929Z,101427.94
2022-08-30T10:41:00.897Z,101544.38
2022-08-30T10:43:38.951Z,101504.88
2022-08-30T10:46:24.677Z,101477.53
2022-08-30T10:48:52.793Z,101468.84
2022-08-30T10:51:29.724Z,101532.00
2022-08-30T10:54:01.721Z,101534.84
2022-08-30T10:56:29.498Z,101480.44
2022-08-30T10:58:58.335Z,101519.91
2022-08-30T11:01:47.160Z,101521.63
2022-08-30T11:04:17.662Z,101536.81
2022-08-30T11:06:47.126Z,101535.53
2022-08-30T11:09:37.935Z,101340.75
2022-08-30T11:12:29.069Z,101544.75
2022-08-30T11:14:55.616Z,101484.63
2022-08-30T11:17:38.238Z,101546.31
2022-08-30T11:20:05.405Z,101538.31
2022-08-30T11:22:39.294Z,101503.66
2022-08-30T11:25:16.864Z,101553.84
2022-08-30T11:27:56.665Z,101523.50
2022-08-30T11:30:27.365Z,101546.00
2022-08-30T11:32:59.400Z,101527.75
2022-08-30T11:35:36.699Z,101533.50
2022-08-30T11:38:17.004Z,101528.06
2022-08-30T11:40:56.102Z,101539.88
2022-08-30T11:43:36.795Z,101539.72
2022-08-30T11:46:28.779Z,101546.75
2022-08-30T11:49:13.891Z,101541.13
2022-08-30T11:55:06.988Z,101541.25
2022-08-30T11:57:44.227Z,101529.47
2022-08-30T12:00:30.191Z,101528.78
2022-08-30T12:03:04.017Z,101569.69
2022-08-30T12:05:38.433Z,101548.63
2022-08-30T12:08:34.314Z,101543.72
2022-08-30T12:11:35.528Z,101537.94
2022-08-30T12:14:09.348Z,101516.13
2022-08-30T12:17:04.601Z,101530.06
2022-08-30T12:19:33.011Z,101509.81
2022-08-30T12:22:04.194Z,101497.28
2022-08-30T12:24:40.007Z,101520.66
2022-08-30T12:27:39.141Z,101528.06
2022-08-30T12:30:10.003Z,101513.63
2022-08-30T12:32:47.301Z,101435.47
2022-08-30T12:35:25.612Z,101534.31
2022-08-30T12:38:11.911Z,101525.75
2022-08-30T12:40:52.144Z,101535.69
2022-08-30T12:43:38.673Z,101526.25
2022-08-30T12:46:11.544Z,101450.81
2022-08-30T12:48:40.540Z,101486.16
2022-08-30T12:51:07.485Z,101519.69
2022-08-30T12:53:38.111Z,101504.38
2022-08-30T12:56:09.139Z,101515.81
2022-08-30T12:58:53.659Z,101505.31
2022-08-30T13:01:35.891Z,101509.25
2022-08-30T13:04:22.908Z,101505.50
2022-08-30T13:06:55.617Z,101389.38
2022-08-30T13:09:32.461Z,101498.41
2022-08-30T13:12:03.715Z,101459.56
2022-08-30T13:14:33.281Z,101449.47
2022-08-30T13:17:06.225Z,101508.22
2022-08-30T13:19:36.938Z,101496.56
2022-08-30T13:22:05.510Z,101505.00
2022-08-30T13:24:31.892Z,101530.47
2022-08-30T13:27:11.793Z,101408.41
2022-08-30T13:29:38.378Z,101478.94
2022-08-30T13:32:04.900Z,101428.25
2022-08-30T13:34:33.053Z,101440.53
2022-08-30T13:36:59.926Z,101461.06
2022-08-30T13:39:26.825Z,101496.31
2022-08-30T13:41:54.785Z,101472.53
2022-08-30T13:44:22.786Z,101431.25
2022-08-30T13:46:54.617Z,101484.38
2022-08-30T13:52:22.530Z,101453.66
2022-08-30T13:54:53.468Z,101419.91
2022-08-30T14:00:15.219Z,101470.19
2022-08-30T14:02:46.457Z,101469.97
2022-08-30T14:05:31.050Z,101477.94
2022-08-30T14:08:00.596Z,101477.03
2022-08-30T14:10:30.717Z,101400.31
2022-08-30T14:13:08.068Z,101347.13
2022-08-30T14:15:36.335Z,101474.91
2022-08-30T14:18:06.542Z,101481.25
2022-08-30T14:20:35.224Z,101448.63
2022-08-30T14:23:04.936Z,101405.53
2022-08-30T14:25:36.738Z,101474.19
2022-08-30T14:28:03.350Z,101408.25
2022-08-30T14:30:29.806Z,101413.28
2022-08-30T14:32:56.192Z,101399.47
2022-08-30T14:35:22.837Z,101434.47
2022-08-30T14:37:50.582Z,101351.00
2022-08-30T14:40:18.567Z,101426.41
2022-08-30T14:42:44.978Z,101398.63
2022-08-30T14:45:11.901Z,101441.56
2022-08-30T14:47:38.709Z,101467.13
2022-08-30T14:50:05.867Z,101423.72
2022-08-30T14:52:32.575Z,101457.38
2022-08-30T14:55:05.183Z,101434.50
2022-08-30T14:57:35.507Z,101455.19
2022-08-30T15:00:06.051Z,101349.47
2022-08-30T15:02:32.428Z,101339.72
2022-08-30T15:04:58.802Z,101430.81
2022-08-30T15:07:25.193Z,101444.94
2022-08-30T15:09:51.544Z,101377.56
2022-08-30T15:12:17.989Z,101408.03
2022-08-30T15:14:44.782Z,101464.78
2022-08-30T15:17:12.941Z,101418.81
2022-08-30T15:19:39.553Z,101385.00
2022-08-30T15:22:06.942Z,101439.84
2022-08-30T15:24:35.045Z,101409.84
2022-08-30T15:27:03.346Z,101446.78
2022-08-30T15:29:31.699Z,101454.53
2022-08-30T15:31:59.936Z,101442.91
2022-08-30T15:34:28.033Z,101329.44
2022-08-30T15:36:55.484Z,101441.84
2022-08-30T15:39:21.963Z,101419.13
2022-08-30T15:41:57.126Z,101303.81
2022-08-30T15:44:26.286Z,101309.19
2022-08-30T15:46:52.892Z,101397.75
2022-08-30T15:49:22.809Z,101424.88
2022-08-30T15:51:54.007Z,101426.03
2022-08-30T15:54:22.873Z,101350.31
2022-08-30T15:56:49.297Z,101374.72
2022-08-30T15:59:17.370Z,101408.91
2022-08-30T16:01:45.423Z,101429.75
2022-08-30T16:04:14.849Z,101342.78
2022-08-30T16:06:41.736Z,101357.13
2022-08-30T16:09:10.059Z,101422.84
2022-08-30T16:11:37.403Z,101403.31
2022-08-30T16:14:05.625Z,101424.81
2022-08-30T16:16:32.531Z,101392.13
2022-08-30T16:18:59.195Z,101332.44
2022-08-30T16:21:30.795Z,101399.97
2022-08-30T16:23:58.914Z,101391.06
2022-08-30T16:26:26.785Z,101398.22
2022-08-30T16:28:54.789Z,101279.25
2022-08-30T16:31:22.587Z,101438.44
2022-08-30T16:33:52.762Z,101432.78
2022-08-30T16:36:21.274Z,101429.38
2022-08-30T16:38:48.794Z,101421.59
2022-08-30T16:41:21.489Z,101378.44
2022-08-30T16:43:49.583Z,101410.97
2022-08-30T16:46:23.225Z,101429.75
2022-08-30T16:48:56.281Z,101389.94
2022-08-30T16:51:24.719Z,101398.06
2022-08-30T16:53:54.888Z,101425.44
2022-08-30T16:56:24.380Z,101406.69
2022-08-30T16:59:00.449Z,101387.72
2022-08-30T17:01:28.871Z,101293.44
2022-08-30T17:03:55.611Z,101398.06
2022-08-30T17:06:22.057Z,101350.56
2022-08-30T17:08:48.492Z,101330.84
2022-08-30T17:11:22.340Z,101428.31
2022-08-30T17:13:49.303Z,101436.97
2022-08-30T17:16:27.258Z,101437.44
2022-08-30T17:18:54.270Z,101362.53
2022-08-30T17:21:20.651Z,101404.03
2022-08-30T17:23:48.546Z,101382.88
2022-08-30T17:26:16.329Z,101423.69
2022-08-30T17:28:43.573Z,101399.50
2022-08-30T17:31:10.940Z,101430.56
2022-08-30T17:33:39.726Z,101391.78
2022-08-30T17:36:07.580Z,101484.59
2022-08-30T17:38:34.646Z,101470.91
2022-08-30T17:41:06.606Z,101399.03
2022-08-30T17:43:35.226Z,101475.78
2022-08-30T17:46:14.427Z,101407.25
2022-08-30T17:48:43.080Z,101429.81
2022-08-30T17:51:09.589Z,101475.38
2022-08-30T17:53:36.785Z,101395.84
2022-08-30T17:56:04.841Z,101486.41
2022-08-30T17:58:31.909Z,101441.34
2022-08-30T18:01:11.579Z,101503.34
2022-08-30T18:03:39.400Z,101509.00
2022-08-30T18:06:06.690Z,101469.09
2022-08-30T18:08:34.377Z,101504.44
2022-08-30T18:11:01.093Z,101321.47
2022-08-30T18:13:27.466Z,101444.41
2022-08-30T18:15:53.943Z,101518.25
2022-08-30T18:18:21.081Z,101459.06
2022-08-30T18:20:47.886Z,101472.28
2022-08-30T18:23:14.435Z,101530.34
2022-08-30T18:25:42.070Z,101471.13
2022-08-30T18:28:08.817Z,101493.66
2022-08-30T18:30:41.445Z,101395.28
2022-08-30T18:33:08.681Z,101473.31
2022-08-30T18:35:36.366Z,101542.44
2022-08-30T18:38:03.255Z,101521.44
2022-08-30T18:40:29.706Z,101502.03
2022-08-30T18:42:56.197Z,101521.66
2022-08-30T18:45:23.839Z,101517.78
2022-08-30T18:47:50.475Z,101526.56
2022-08-30T18:50:17.112Z,101564.91
2022-08-30T18:52:45.088Z,101396.88
2022-08-30T18:55:11.733Z,101502.25
2022-08-30T18:57:38.236Z,101534.97
2022-08-30T19:00:05.048Z,101527.91
2022-08-30T19:02:31.910Z,101466.94
2022-08-30T19:04:59.091Z,101483.44
2022-08-30T19:07:28.955Z,101505.84
2022-08-30T19:10:00.667Z,101524.88
2022-08-30T19:12:28.053Z,101401.47
2022-08-30T19:14:56.164Z,101524.53
2022-08-30T19:17:22.909Z,101510.69
2022-08-30T19:19:52.406Z,101488.50
2022-08-30T19:22:21.222Z,101402.44
2022-08-30T19:24:49.770Z,101554.22
2022-08-30T19:27:17.404Z,101553.09
2022-08-30T19:29:44.597Z,101550.44
2022-08-30T19:32:11.950Z,101558.00
2022-08-30T19:34:39.666Z,101556.59
2022-08-30T19:37:06.124Z,101552.13
2022-08-30T19:39:32.865Z,101507.38
2022-08-30T19:41:59.313Z,101518.06
2022-08-30T19:44:26.724Z,101557.09
2022-08-30T19:46:53.762Z,101560.13
2022-08-30T19:49:22.743Z,101549.56
2022-08-30T19:51:49.141Z,101525.28
2022-08-30T19:54:15.611Z,101452.84
2022-08-30T19:56:43.928Z,101568.63
2022-08-30T20:01:56.891Z,101567.16
2022-08-30T20:04:23.354Z,101565.47
2022-08-30T20:06:50.601Z,101506.09
2022-08-30T20:09:17.122Z,101564.81
2022-08-30T20:11:43.621Z,101492.47
2022-08-30T20:14:13.532Z,101565.31
2022-08-30T20:16:40.394Z,101509.28
2022-08-30T20:19:09.534Z,101575.00
2022-08-30T20:21:37.039Z,101433.03
2022-08-30T20:24:04.140Z,101552.72
2022-08-30T20:26:33.769Z,101544.91
2022-08-30T20:29:01.747Z,101415.28
2022-08-30T20:31:28.840Z,101476.75
2022-08-30T20:33:55.382Z,101551.13
2022-08-30T20:36:21.767Z,101434.66
2022-08-30T20:38:48.555Z,101423.41
2022-08-30T20:41:16.938Z,101561.88
2022-08-30T20:43:44.016Z,101552.94
2022-08-30T20:46:16.418Z,101524.66
2022-08-30T20:48:43.524Z,101574.66
2022-08-30T20:51:15.712Z,101538.44
2022-08-30T20:53:42.877Z,101485.03
2022-08-30T20:56:18.705Z,101572.09
2022-08-30T20:58:45.760Z,101579.09
2022-08-30T21:01:13.643Z,101441.00
2022-08-30T21:03:41.301Z,101569.81
2022-08-30T21:06:08.521Z,101574.44
2022-08-30T21:08:35.041Z,101500.91
2022-08-30T21:11:01.566Z,101521.97
2022-08-30T21:13:28.071Z,101506.97
2022-08-30T21:16:00.251Z,101510.25
2022-08-30T21:18:29.604Z,101577.13
2022-08-30T21:20:56.864Z,101554.31
2022-08-30T21:23:23.669Z,101499.38
2022-08-30T21:25:50.374Z,101513.88
2022-08-30T21:28:17.932Z,101570.69
2022-08-30T21:30:44.597Z,101581.50
2022-08-30T21:33:11.068Z,101474.06
2022-08-30T21:35:56.323Z,101581.63
2022-08-30T21:38:22.798Z,101586.31
2022-08-30T21:40:49.229Z,101525.53
2022-08-30T21:43:16.115Z,101427.66
2022-08-30T21:45:44.265Z,101580.63
2022-08-30T21:48:12.830Z,101587.91
2022-08-30T21:50:40.943Z,101510.03
2022-08-30T21:53:07.482Z,101552.06
2022-08-30T21:55:33.893Z,101588.28
2022-08-30T21:58:00.490Z,101590.09
2022-08-30T22:00:26.901Z,101601.84
2022-08-30T22:02:53.470Z,101538.00
2022-08-30T22:05:20.489Z,101594.13
2022-08-30T22:07:46.940Z,101507.59
2022-08-30T22:10:15.702Z,101601.38
2022-08-30T22:12:42.090Z,101549.13
2022-08-30T22:15:09.156Z,101582.38
2022-08-30T22:17:35.592Z,101572.53
2022-08-30T22:20:02.131Z,101477.00
2022-08-30T22:22:28.597Z,101535.81
2022-08-30T22:24:54.953Z,101572.16
2022-08-30T22:27:21.642Z,101544.78
2022-08-30T22:29:48.072Z,101569.16
2022-08-30T22:32:14.618Z,101615.19
2022-08-30T22:34:40.997Z,101554.22
2022-08-30T22:37:07.852Z,101477.00
2022-08-30T22:39:34.273Z,101592.50
2022-08-30T22:42:00.723Z,101547.69
2022-08-30T22:44:27.224Z,101475.06
2022-08-30T22:46:53.666Z,101554.22
2022-08-30T22:49:20.441Z,101603.41
2022-08-30T22:51:46.981Z,101558.69
2022-08-30T22:54:13.892Z,101615.88
2022-08-30T22:56:40.321Z,101573.34
2022-08-30T22:59:07.047Z,101569.50
2022-08-30T23:01:37.935Z,101611.53
2022-08-30T23:04:06.737Z,101471.41
2022-08-30T23:06:33.621Z,101532.00
2022-08-30T23:09:00.123Z,101586.19
2022-08-30T23:11:26.994Z,101619.03
2022-08-30T23:13:54.274Z,101633.44
2022-08-30T23:16:21.401Z,101610.53
2022-08-30T23:18:47.993Z,101607.25
2022-08-30T23:21:18.204Z,101619.63
2022-08-30T23:24:03.714Z,101648.94
2022-08-30T23:26:48.728Z,101613.41
2022-08-30T23:29:34.636Z,101639.09
2022-08-30T23:32:20.499Z,101581.38
2022-08-30T23:35:05.262Z,101559.47
2022-08-30T23:37:52.944Z,101632.13
2022-08-30T23:40:39.742Z,101609.84
2022-08-30T23:43:25.620Z,101609.84
2022-08-30T23:46:10.635Z,101571.00
2022-08-30T23:48:59.836Z,101555.22
2022-08-30T23:51:44.763Z,101606.59
2022-08-30T23:54:29.570Z,101538.66
2022-08-30T23:57:14.930Z,101600.13
2022-08-30T23:59:59.822Z,101596.69
